Time;durP1;ratioP1;P1;durP2;ratioP2;P2;SDS_P1;SDS_P2;PMS_P1;PMS_P2;Temp;Humidity;BMP_temperature;BMP_pressure;BME280_temperature;BME280_humidity;BME280_pressure;Samples;Min_cycle;Max_cycle;Signal;HPM_P1;HPM_P2
2022/07/10 00:00:25;;;;;;;0.50;0.20;;;;;;;20.74;45.74;101908.91;6122381;23;20002;-80
2022/07/10 00:02:52;;;;;;;0.52;0.35;;;;;;;20.66;45.27;101901.56;6123653;23;20448;-78
2022/07/10 00:05:18;;;;;;;1.30;0.47;;;;;;;20.54;45.03;101906.13;6147336;23;20428;-80
2022/07/10 00:07:43;;;;;;;0.60;0.40;;;;;;;20.47;44.78;101907.59;6122923;23;20341;-80
2022/07/10 00:10:09;;;;;;;1.70;0.30;;;;;;;20.40;45.38;101909.13;6124395;23;20002;-79
2022/07/10 00:12:35;;;;;;;0.43;0.30;;;;;;;20.26;45.16;101912.13;6124266;23;20314;-79
2022/07/10 00:15:00;;;;;;;2.60;0.30;;;;;;;20.32;45.08;101899.13;6125263;23;20045;-79
2022/07/10 00:17:25;;;;;;;0.68;0.32;;;;;;;20.30;45.95;101905.53;6126287;23;20006;-80
2022/07/10 00:19:51;;;;;;;0.30;0.30;;;;;;;20.22;46.36;101900.84;6126224;23;20295;-80
2022/07/10 00:22:16;;;;;;;1.48;0.65;;;;;;;20.26;46.79;101904.13;6125817;23;20456;-80
2022/07/10 00:24:41;;;;;;;0.40;0.30;;;;;;;20.19;47.41;101909.97;6126158;23;20429;-79
2022/07/10 00:27:07;;;;;;;1.67;0.40;;;;;;;20.09;47.94;101902.91;6124328;23;20092;-79
2022/07/10 00:29:32;;;;;;;7.22;1.70;;;;;;;19.89;48.57;101904.59;6125748;23;20096;-79
2022/07/10 00:31:57;;;;;;;0.95;0.30;;;;;;;19.81;49.04;101900.72;6125838;23;20002;-79
2022/07/10 00:34:23;;;;;;;0.82;0.40;;;;;;;19.90;50.94;101907.09;6124249;23;20029;-80
2022/07/10 00:36:48;;;;;;;0.82;0.50;;;;;;;19.86;50.15;101907.50;6125920;23;20025;-80
2022/07/10 00:39:13;;;;;;;1.58;0.30;;;;;;;19.75;50.91;101895.91;6125865;23;19998;-79
2022/07/10 00:41:39;;;;;;;1.02;0.50;;;;;;;19.51;51.11;101898.75;6126497;23;20443;-80
2022/07/10 00:44:04;;;;;;;0.63;0.43;;;;;;;19.62;51.04;101900.53;6126177;23;20006;-80
2022/07/10 00:46:31;;;;;;;0.63;0.45;;;;;;;19.63;51.88;101896.91;6125815;23;20052;-80
2022/07/10 00:48:57;;;;;;;1.60;0.40;;;;;;;19.55;51.92;101896.66;6126128;23;20062;-80
2022/07/10 00:51:28;;;;;;;1.50;0.40;;;;;;;19.59;52.31;101895.47;6126233;23;20025;-80
2022/07/10 00:53:55;;;;;;;1.13;0.50;;;;;;;19.48;53.06;101895.50;6125585;23;20026;-80
2022/07/10 00:56:24;;;;;;;1.42;0.50;;;;;;;19.23;53.50;101892.16;6125958;23;20480;-80
2022/07/10 00:58:49;;;;;;;1.90;0.40;;;;;;;19.21;54.08;101896.75;6125870;23;20021;-80
2022/07/10 01:01:16;;;;;;;3.67;0.75;;;;;;;19.31;55.41;101892.41;6125803;23;20333;-79
2022/07/10 01:03:42;;;;;;;1.30;0.90;;;;;;;19.24;55.67;101901.84;6125958;23;20086;-80
2022/07/10 01:06:07;;;;;;;2.00;0.70;;;;;;;19.19;55.82;101902.25;6125625;23;20029;-80
2022/07/10 01:08:33;;;;;;;1.25;0.50;;;;;;;19.00;56.73;101896.69;6125523;23;20006;-80
2022/07/10 01:11:00;;;;;;;2.13;0.75;;;;;;;19.06;57.03;101903.34;6123981;23;20009;-79
2022/07/10 01:13:26;;;;;;;0.60;0.50;;;;;;;19.09;58.20;101897.75;6125665;23;20006;-80
2022/07/10 01:15:52;;;;;;;1.15;0.60;;;;;;;19.06;56.65;101896.22;6125346;23;20010;-80
2022/07/10 01:18:18;;;;;;;3.83;0.63;;;;;;;19.06;56.68;101890.88;6125461;23;20077;-80
2022/07/10 01:20:43;;;;;;;0.90;0.60;;;;;;;18.95;58.97;101886.41;6125536;23;20525;-80
2022/07/10 01:23:09;;;;;;;0.90;0.40;;;;;;;18.94;59.29;101884.72;6125475;23;20012;-80
2022/07/10 01:25:34;;;;;;;1.08;0.50;;;;;;;18.76;59.19;101881.69;6125231;23;20016;-80
2022/07/10 01:28:00;;;;;;;2.10;0.82;;;;;;;18.76;60.46;101878.16;6125270;23;20369;-80
2022/07/10 01:30:26;;;;;;;1.42;0.60;;;;;;;18.65;60.22;101870.19;6125054;23;20006;-80
2022/07/10 01:32:52;;;;;;;2.05;0.88;;;;;;;18.57;60.30;101862.81;6125315;23;20421;-80
2022/07/10 01:35:18;;;;;;;0.95;0.63;;;;;;;18.62;62.06;101864.16;6125326;23;20013;-80
2022/07/10 01:37:44;;;;;;;1.08;0.70;;;;;;;18.60;61.82;101866.09;6125311;23;20006;-79
2022/07/10 01:40:10;;;;;;;1.92;0.50;;;;;;;18.66;61.97;101855.91;6123697;23;20385;-80
2022/07/10 01:42:37;;;;;;;4.53;0.82;;;;;;;18.60;61.92;101858.13;6125426;23;20089;-80
2022/07/10 01:45:03;;;;;;;3.13;0.60;;;;;;;18.54;62.06;101861.25;6125762;23;20006;-79
2022/07/10 01:47:29;;;;;;;1.15;0.73;;;;;;;18.54;62.46;101865.72;6125326;23;20013;-79
2022/07/10 01:49:54;;;;;;;2.75;0.70;;;;;;;18.50;63.62;101859.78;6124950;23;20002;-79
2022/07/10 01:52:20;;;;;;;1.17;0.73;;;;;;;18.54;63.02;101863.03;6125057;23;20002;-79
2022/07/10 01:54:47;;;;;;;2.05;0.80;;;;;;;18.66;62.90;101859.44;6125372;23;20505;-79
2022/07/10 01:57:13;;;;;;;1.15;0.55;;;;;;;18.59;65.33;101861.72;6125377;23;20053;-80
2022/07/10 01:59:39;;;;;;;1.75;0.77;;;;;;;18.42;64.76;101870.19;6125162;23;20492;-80
2022/07/10 02:02:04;;;;;;;4.45;0.95;;;;;;;18.51;64.84;101861.47;6125026;23;20037;-79
2022/07/10 02:04:41;;;;;;;1.73;0.90;;;;;;;18.35;65.67;101866.31;6124954;23;20014;-79
2022/07/10 02:07:16;;;;;;;2.60;1.13;;;;;;;18.41;67.63;101860.53;6125177;23;20345;-80
2022/07/10 02:09:43;;;;;;;1.50;0.80;;;;;;;18.36;67.49;101873.31;6124998;23;20060;-79
2022/07/10 02:12:10;;;;;;;3.53;0.80;;;;;;;18.39;68.08;101878.41;6123229;23;20002;-80
2022/07/10 02:14:35;;;;;;;3.17;0.65;;;;;;;18.33;67.93;101873.56;6123312;23;20084;-80
2022/07/10 02:17:01;;;;;;;1.10;0.70;;;;;;;18.33;68.19;101876.22;6125121;23;20481;-80
2022/07/10 02:19:27;;;;;;;0.98;0.70;;;;;;;18.30;69.40;101879.13;6124798;23;20012;-79
2022/07/10 02:21:52;;;;;;;1.50;1.02;;;;;;;18.19;70.14;101878.13;6124395;23;20009;-80
2022/07/10 02:24:17;;;;;;;1.65;1.00;;;;;;;18.11;71.99;101877.88;6125228;23;20009;-80
2022/07/10 02:26:43;;;;;;;1.15;0.90;;;;;;;18.08;73.36;101875.44;6124947;23;20001;-79
2022/07/10 02:29:08;;;;;;;2.45;1.48;;;;;;;18.07;74.22;101863.13;6125201;23;20006;-79
2022/07/10 02:31:34;;;;;;;1.55;1.00;;;;;;;18.09;76.33;101861.19;6124924;23;20337;-79
2022/07/10 02:34:00;;;;;;;2.08;1.23;;;;;;;18.05;76.18;101870.38;6124754;23;20009;-79
2022/07/10 02:36:26;;;;;;;1.65;1.30;;;;;;;18.01;76.84;101864.44;6124811;23;20002;-80
2022/07/10 02:38:51;;;;;;;2.20;1.27;;;;;;;18.03;76.44;101872.31;6124620;23;20029;-80
2022/07/10 02:41:17;;;;;;;3.15;1.40;;;;;;;18.04;77.17;101872.16;6123351;23;20473;-80
2022/07/10 02:43:42;;;;;;;1.20;1.10;;;;;;;17.96;78.53;101860.44;6124527;23;20077;-79
2022/07/10 02:46:07;;;;;;;3.30;1.95;;;;;;;17.95;78.75;101864.91;6124833;23;20045;-80
2022/07/10 02:48:33;;;;;;;3.33;1.70;;;;;;;17.94;80.85;101863.22;6123355;23;20233;-80
2022/07/10 02:50:58;;;;;;;2.92;1.42;;;;;;;17.98;81.53;101853.19;6124757;23;20010;-80
2022/07/10 02:53:23;;;;;;;3.25;1.92;;;;;;;17.87;82.13;101850.50;6124549;23;20040;-79
2022/07/10 02:55:49;;;;;;;2.97;1.30;;;;;;;17.91;83.45;101862.59;6124951;23;20037;-79
2022/07/10 02:58:15;;;;;;;3.45;1.52;;;;;;;17.83;84.11;101861.38;6124748;23;20059;-80
2022/07/10 03:00:41;;;;;;;3.47;1.95;;;;;;;17.70;85.52;101857.91;6124417;23;20448;-80
2022/07/10 03:03:07;;;;;;;3.13;1.88;;;;;;;17.74;84.94;101862.03;6124532;23;20377;-79
2022/07/10 03:05:33;;;;;;;2.58;1.63;;;;;;;17.76;86.16;101857.44;6124686;23;20056;-80
2022/07/10 03:07:58;;;;;;;1.60;1.50;;;;;;;17.68;86.14;101854.53;6124611;23;20021;-80
2022/07/10 03:10:24;;;;;;;2.55;1.83;;;;;;;17.59;88.05;101852.56;6124800;23;20010;-79
2022/07/10 03:12:49;;;;;;;3.75;1.80;;;;;;;17.60;88.34;101859.56;6124447;23;20062;-79
2022/07/10 03:15:15;;;;;;;1.88;1.55;;;;;;;17.43;89.11;101863.47;6124616;23;20006;-80
2022/07/10 03:17:40;;;;;;;1.70;1.60;;;;;;;17.38;88.42;101861.16;6124601;23;20006;-79
2022/07/10 03:20:07;;;;;;;1.75;1.65;;;;;;;17.39;90.27;101854.88;6124465;23;20425;-80
2022/07/10 03:22:32;;;;;;;1.80;1.65;;;;;;;17.32;90.56;101848.34;6124787;23;20032;-79
2022/07/10 03:24:58;;;;;;;2.15;1.77;;;;;;;17.29;90.77;101845.06;6124683;23;20389;-80
2022/07/10 03:27:23;;;;;;;3.40;1.70;;;;;;;17.29;92.80;101840.59;6124608;23;20425;-80
2022/07/10 03:29:48;;;;;;;2.63;1.75;;;;;;;17.35;91.25;101839.28;6124192;23;20006;-80
2022/07/10 03:32:14;;;;;;;2.67;1.60;;;;;;;17.26;91.88;101830.22;6124522;23;20713;-80
2022/07/10 03:34:39;;;;;;;4.15;2.03;;;;;;;17.15;91.68;101835.44;6124386;23;20009;-79
2022/07/10 03:37:05;;;;;;;2.42;1.55;;;;;;;17.02;92.74;101833.69;6124595;23;20002;-79
2022/07/10 03:39:31;;;;;;;2.00;1.45;;;;;;;17.08;91.02;101843.03;6124812;23;20089;-80
2022/07/10 03:41:56;;;;;;;1.95;1.60;;;;;;;16.93;92.14;101831.69;6124394;23;20006;-79
2022/07/10 03:44:21;;;;;;;2.95;2.30;;;;;;;16.87;92.73;101829.50;6123020;23;20421;-80
2022/07/10 03:46:46;;;;;;;3.10;2.08;;;;;;;16.95;92.74;101827.13;6123622;23;20422;-80
2022/07/10 03:49:12;;;;;;;1.83;1.60;;;;;;;16.95;91.02;101832.44;6125166;23;20010;-80
2022/07/10 03:51:37;;;;;;;3.63;1.55;;;;;;;16.89;91.53;101826.75;6126136;23;20084;-79
2022/07/10 03:54:02;;;;;;;4.03;1.13;;;;;;;16.86;92.90;101830.44;6126231;23;20029;-80
2022/07/10 03:59:12;;;;;;;1.50;1.40;;;;;;;16.72;90.56;101838.50;6126279;23;20017;-80
2022/07/10 04:01:37;;;;;;;1.83;1.35;;;;;;;16.61;90.87;101837.47;6126141;23;20006;-80
2022/07/10 04:04:03;;;;;;;2.35;1.67;;;;;;;16.68;93.00;101839.69;6126438;23;20010;-79
2022/07/10 04:06:28;;;;;;;2.65;1.90;;;;;;;16.60;93.62;101830.47;6126219;23;20014;-79
2022/07/10 04:08:54;;;;;;;3.38;1.90;;;;;;;16.65;91.56;101832.81;6126397;23;20009;-80
2022/07/10 04:11:19;;;;;;;3.10;2.35;;;;;;;16.42;94.21;101831.75;6126120;23;19998;-79
2022/07/10 04:13:44;;;;;;;4.25;2.92;;;;;;;16.20;100.00;101832.41;6126026;23;20008;-80
2022/07/10 04:16:12;;;;;;;5.65;3.22;;;;;;;16.32;98.89;101828.06;6126208;23;20016;-79
2022/07/10 04:18:39;;;;;;;5.15;2.90;;;;;;;16.28;96.89;101827.44;6126119;23;20073;-79
2022/07/10 04:21:04;;;;;;;4.38;2.97;;;;;;;16.39;99.07;101829.31;6125824;23;20389;-80
2022/07/10 04:23:30;;;;;;;3.13;2.42;;;;;;;16.34;98.56;101827.00;6126095;23;20005;-80
2022/07/10 04:25:56;;;;;;;4.03;2.90;;;;;;;16.40;100.00;101829.22;6126145;23;20002;-79
2022/07/10 04:28:21;;;;;;;4.38;2.97;;;;;;;16.50;100.00;101837.38;6126028;23;20057;-79
2022/07/10 04:30:47;;;;;;;5.72;3.05;;;;;;;16.52;100.00;101832.81;6125794;23;20014;-79
2022/07/10 04:33:12;;;;;;;2.90;2.60;;;;;;;16.38;100.00;101830.28;6125859;23;20083;-80
2022/07/10 04:35:38;;;;;;;4.30;3.22;;;;;;;16.39;100.00;101834.63;6124347;23;20401;-79
2022/07/10 04:38:03;;;;;;;4.32;3.45;;;;;;;16.44;100.00;101829.84;6126017;23;20006;-79
2022/07/10 04:40:29;;;;;;;4.35;3.38;;;;;;;16.44;100.00;101833.34;6125838;23;20006;-79
2022/07/10 04:42:54;;;;;;;4.32;3.92;;;;;;;16.52;100.00;101832.81;6125894;23;20002;-79
2022/07/10 04:45:19;;;;;;;4.03;3.58;;;;;;;16.54;100.00;101828.25;6125826;23;20006;-80
2022/07/10 04:47:45;;;;;;;6.43;4.50;;;;;;;16.44;100.00;101828.03;6126009;23;20002;-79
2022/07/10 04:50:10;;;;;;;4.53;4.13;;;;;;;16.36;100.00;101829.56;6125747;23;20337;-79
2022/07/10 04:52:36;;;;;;;6.15;4.65;;;;;;;16.50;100.00;101826.78;6125784;23;20006;-79
2022/07/10 04:55:01;;;;;;;5.18;4.68;;;;;;;16.60;100.00;101821.66;6125409;23;20033;-79
2022/07/10 04:57:26;;;;;;;6.80;5.22;;;;;;;16.60;100.00;101821.66;6125975;23;20006;-80
2022/07/10 04:59:53;;;;;;;6.30;5.65;;;;;;;16.68;100.00;101818.47;6123083;23;20008;-80
2022/07/10 05:02:18;;;;;;;5.32;4.60;;;;;;;16.78;100.00;101817.69;6123796;23;20265;-80
2022/07/10 05:04:44;;;;;;;6.90;5.97;;;;;;;16.83;100.00;101812.09;6120241;23;20489;-80
2022/07/10 05:07:09;;;;;;;7.50;6.47;;;;;;;16.85;100.00;101815.50;6119573;23;20018;-80
2022/07/10 05:09:34;;;;;;;6.85;6.05;;;;;;;16.87;100.00;101813.56;6119578;23;20085;-80
2022/07/10 05:12:00;;;;;;;7.03;6.05;;;;;;;16.89;100.00;101813.47;6119626;23;20006;-80
2022/07/10 05:14:25;;;;;;;6.00;4.53;;;;;;;16.94;100.00;101809.53;6118814;23;20041;-79
2022/07/10 05:16:51;;;;;;;5.07;4.57;;;;;;;17.00;100.00;101818.81;6119535;23;20014;-80
2022/07/10 05:19:16;;;;;;;6.25;4.07;;;;;;;16.99;100.00;101822.44;6119486;23;20071;-80
2022/07/10 05:21:41;;;;;;;5.50;3.38;;;;;;;16.93;100.00;101818.44;6119218;23;20017;-79
2022/07/10 05:24:07;;;;;;;3.88;3.28;;;;;;;16.99;99.42;101817.16;6119160;23;20006;-79
2022/07/10 05:26:33;;;;;;;4.00;3.08;;;;;;;17.02;99.45;101817.78;6119476;23;20543;-79
2022/07/10 05:28:58;;;;;;;4.03;2.95;;;;;;;17.04;99.23;101821.16;6118697;23;20006;-79
2022/07/10 05:31:24;;;;;;;4.13;3.30;;;;;;;17.05;98.45;101817.53;6119250;23;20006;-79
2022/07/10 05:33:49;;;;;;;3.60;3.30;;;;;;;17.06;99.47;101823.69;6119348;23;20049;-79
2022/07/10 05:36:15;;;;;;;3.58;3.25;;;;;;;17.12;99.81;101830.34;6118831;23;20038;-80
2022/07/10 05:38:40;;;;;;;5.00;2.97;;;;;;;17.20;100.00;101831.50;6123351;23;20085;-80
2022/07/10 05:41:05;;;;;;;3.67;3.03;;;;;;;17.14;99.63;101828.44;6125133;23;20093;-80
2022/07/10 05:43:30;;;;;;;3.00;2.67;;;;;;;17.22;98.88;101831.41;6125501;23;20056;-80
2022/07/10 05:45:56;;;;;;;3.95;2.72;;;;;;;17.31;97.71;101827.22;6124433;23;20006;-80
2022/07/10 05:48:21;;;;;;;3.47;2.22;;;;;;;17.35;97.61;101820.72;6125315;23;20003;-80
2022/07/10 05:50:47;;;;;;;4.57;2.42;;;;;;;17.37;97.93;101827.59;6123220;23;20456;-80
2022/07/10 05:53:12;;;;;;;5.47;2.33;;;;;;;17.31;97.25;101836.00;6125028;23;20070;-80
2022/07/10 05:55:37;;;;;;;3.97;2.35;;;;;;;17.50;95.17;101830.19;6125183;23;20013;-80
2022/07/10 05:58:03;;;;;;;3.08;2.42;;;;;;;17.60;94.17;101828.53;6125257;23;20002;-80
2022/07/10 06:00:28;;;;;;;2.25;1.88;;;;;;;17.69;94.05;101828.81;6124234;23;20006;-80
2022/07/10 06:02:53;;;;;;;2.88;2.30;;;;;;;17.78;94.74;101834.25;6124887;23;20073;-80
2022/07/10 06:05:19;;;;;;;3.58;2.20;;;;;;;17.90;94.16;101835.19;6125035;23;20213;-80
2022/07/10 06:07:44;;;;;;;3.53;2.22;;;;;;;17.99;95.63;101834.47;6124898;23;20337;-80
2022/07/10 06:10:10;;;;;;;4.82;2.33;;;;;;;18.03;94.57;101830.63;6124895;23;20487;-80
2022/07/10 06:12:37;;;;;;;2.20;2.00;;;;;;;18.04;95.95;101836.78;6124832;23;20060;-80
2022/07/10 06:15:03;;;;;;;2.28;2.08;;;;;;;18.32;95.28;101827.50;6124157;23;20010;-80
2022/07/10 06:17:28;;;;;;;3.15;2.25;;;;;;;18.68;92.31;101835.34;6124867;23;20009;-80
2022/07/10 06:19:54;;;;;;;4.45;2.80;;;;;;;18.92;89.45;101827.28;6124802;23;20005;-80
2022/07/10 06:22:32;;;;;;;2.35;2.10;;;;;;;19.14;88.08;101831.69;6124568;23;20012;-79
2022/07/10 06:24:59;;;;;;;5.80;2.80;;;;;;;19.25;85.63;101828.13;6125005;23;20006;-79
2022/07/10 06:27:25;;;;;;;2.83;2.00;;;;;;;19.65;84.64;101825.69;6124850;23;20057;-79
2022/07/10 06:29:50;;;;;;;4.38;3.05;;;;;;;19.97;80.66;101832.81;6124168;23;20002;-79
2022/07/10 06:32:16;;;;;;;4.25;2.55;;;;;;;20.39;79.26;101840.75;6124368;23;20449;-79
2022/07/10 06:34:41;;;;;;;2.70;2.50;;;;;;;20.82;75.63;101836.16;6124627;23;20303;-80
2022/07/10 06:37:06;;;;;;;7.00;3.63;;;;;;;22.56;67.41;101834.34;6124786;23;20001;-80
2022/07/10 06:39:34;;;;;;;3.33;2.72;;;;;;;23.25;63.30;101826.78;6124792;23;19997;-79
2022/07/10 06:42:00;;;;;;;3.95;3.33;;;;;;;25.68;52.57;101823.72;6124271;23;20037;-80
2022/07/10 06:44:25;;;;;;;3.85;3.40;;;;;;;28.78;43.61;101818.22;6123963;23;20056;-80
2022/07/10 06:49:35;;;;;;;3.25;2.80;;;;;;;33.93;32.40;101815.75;6124675;23;20016;-79
2022/07/10 06:52:01;;;;;;;2.83;2.25;;;;;;;35.71;29.81;101811.81;6124661;23;20064;-79
2022/07/10 06:54:26;;;;;;;3.22;2.40;;;;;;;37.54;27.93;101806.53;6124240;23;20014;-79
2022/07/10 06:56:52;;;;;;;7.07;3.08;;;;;;;38.05;26.17;101812.72;6124510;23;20038;-80
2022/07/10 06:59:17;;;;;;;4.95;2.47;;;;;;;39.18;24.92;101814.81;6123791;23;20081;-79
2022/07/10 07:01:42;;;;;;;2.72;2.20;;;;;;;40.18;23.66;101805.78;6124553;23;20037;-80
2022/07/10 07:04:08;;;;;;;2.42;1.92;;;;;;;40.00;23.63;101798.03;6124438;23;20001;-80
2022/07/10 07:06:33;;;;;;;4.68;2.17;;;;;;;41.02;22.53;101809.28;6124172;23;20013;-80
2022/07/10 07:08:58;;;;;;;5.82;1.77;;;;;;;41.56;22.11;101804.28;6124330;23;20385;-80
2022/07/10 07:11:24;;;;;;;2.88;1.60;;;;;;;42.85;20.79;101798.94;6124509;23;20073;-80
2022/07/10 07:13:49;;;;;;;2.42;1.90;;;;;;;44.35;19.18;101797.03;6122278;23;20374;-80
2022/07/10 07:16:18;;;;;;;2.05;1.83;;;;;;;44.51;19.11;101798.47;6123297;23;20006;-81
2022/07/10 07:18:49;;;;;;;4.18;2.25;;;;;;;44.46;18.96;101793.00;6124375;23;20006;-80
2022/07/10 07:23:58;;;;;;;2.45;2.00;;;;;;;43.97;19.82;101797.00;6125349;23;19920;-80
2022/07/10 07:26:23;;;;;;;;;;;;;;;44.85;18.39;101799.31;6127137;23;19913;-80
2022/07/10 07:28:49;;;;;;;3.70;2.03;;;;;;;45.08;17.94;101787.28;6125999;23;20064;-80
2022/07/10 07:31:17;;;;;;;1.70;1.50;;;;;;;44.97;17.90;101790.53;6126331;23;20229;-80
2022/07/10 07:33:43;;;;;;;2.80;1.95;;;;;;;45.26;17.87;101777.25;6126291;23;20006;-80
2022/07/10 07:36:08;;;;;;;2.38;1.77;;;;;;;45.03;17.88;101778.25;6126277;23;20009;-80
2022/07/10 07:38:33;;;;;;;2.17;1.88;;;;;;;45.41;18.16;101794.75;6126542;23;20429;-80
2022/07/10 07:40:59;;;;;;;2.28;1.60;;;;;;;44.89;18.35;101784.59;6126110;23;20462;-79
2022/07/10 07:43:24;;;;;;;1.75;1.65;;;;;;;45.87;17.90;101780.75;6125222;23;20417;-80
2022/07/10 07:45:49;;;;;;;2.28;1.90;;;;;;;46.07;17.99;101787.84;6126275;23;20002;-80
2022/07/10 07:48:15;;;;;;;5.88;1.40;;;;;;;45.04;18.39;101780.72;6126474;23;20006;-80
2022/07/10 07:50:40;;;;;;;2.33;1.80;;;;;;;44.49;18.96;101772.22;6126079;23;20041;-80
2022/07/10 07:53:06;;;;;;;;;;;;;;;43.22;20.06;101779.00;6126433;23;20432;-80
2022/07/10 07:55:32;;;;;;;;;;;;;;;45.45;18.59;101773.59;6126718;23;19952;-81
2022/07/10 07:57:58;;;;;;;1.73;1.52;;;;;;;46.91;16.88;101773.66;6125581;23;20407;-81
2022/07/10 08:00:26;;;;;;;1.75;1.58;;;;;;;46.57;17.20;101773.09;6125849;23;20037;-81
2022/07/10 08:02:53;;;;;;;5.82;1.85;;;;;;;45.41;17.94;101755.94;6125698;23;20002;-81
2022/07/10 08:05:19;;;;;;;2.00;1.45;;;;;;;45.50;17.64;101751.28;6126026;23;20029;-80
2022/07/10 08:07:50;;;;;;;1.75;1.55;;;;;;;45.29;18.12;101773.09;6125813;23;20381;-80
2022/07/10 08:10:18;;;;;;;2.47;1.20;;;;;;;46.24;17.53;101766.94;6125868;23;20002;-80
2022/07/10 08:12:46;;;;;;;1.92;1.40;;;;;;;45.10;18.03;101764.81;6125704;23;20006;-80
2022/07/10 08:15:13;;;;;;;3.10;1.42;;;;;;;45.66;17.67;101760.97;6126346;23;20002;-81
2022/07/10 08:17:39;;;;;;;1.77;1.38;;;;;;;45.67;18.09;101753.47;6125864;23;20012;-80
2022/07/10 08:20:06;;;;;;;4.68;1.20;;;;;;;45.04;18.39;101741.91;6124925;23;20002;-81
2022/07/10 08:22:32;;;;;;;1.73;1.30;;;;;;;44.47;18.54;101741.19;6123948;23;20341;-81
2022/07/10 08:24:58;;;;;;;1.85;1.20;;;;;;;46.17;17.95;101749.88;6125376;23;20036;-80
2022/07/10 08:27:23;;;;;;;2.67;1.17;;;;;;;46.34;17.24;101752.78;6125624;23;19998;-80
2022/07/10 08:29:49;;;;;;;2.67;1.58;;;;;;;45.83;18.19;101751.19;6124128;23;20006;-81
2022/07/10 08:32:14;;;;;;;;;;;;;;;46.33;17.67;101748.34;6124451;23;20006;-80
2022/07/10 08:34:39;;;;;;;;;;;;;;;47.36;16.95;101763.25;6126047;23;19917;-80
2022/07/10 08:37:05;;;;;;;;;;;;;;;47.64;16.83;101754.66;6125993;23;20352;-80
2022/07/10 08:39:31;;;;;;;;;;;;;;;46.82;17.27;101763.28;6125785;23;20244;-80
2022/07/10 08:41:56;;;;;;;;;;;;;;;46.12;17.81;101752.78;6125779;23;20336;-80
2022/07/10 08:44:22;;;;;;;;;;;;;;;46.23;18.33;101754.16;6125958;23;19911;-80
2022/07/10 08:46:47;;;;;;;;;;;;;;;47.12;16.90;101752.47;6125906;23;19909;-80
2022/07/10 08:49:15;;;;;;;;;;;;;;;47.44;17.55;101748.53;6126223;23;20382;-81
2022/07/10 08:51:44;;;;;;;;;;;;;;;45.75;18.14;101743.59;6126162;23;19904;-80
2022/07/10 08:54:13;;;;;;;;;;;;;;;45.04;18.94;101744.69;6125861;23;19912;-81
2022/07/10 08:56:38;;;;;;;;;;;;;;;44.77;19.02;101742.63;6126117;23;19909;-81
2022/07/10 08:59:06;;;;;;;;;;;;;;;45.70;18.29;101731.47;6126242;23;20299;-81
2022/07/10 09:01:32;;;;;;;;;;;;;;;45.29;17.88;101735.06;6126200;23;19919;-80
2022/07/10 09:03:57;;;;;;;;;;;;;;;44.98;17.95;101736.78;6126097;23;19909;-81
2022/07/10 09:06:23;;;;;;;;;;;;;;;44.69;18.39;101729.50;6125698;23;19913;-81
2022/07/10 09:09:02;;;;;;;;;;;;;;;44.99;18.26;101738.41;6149095;23;19931;-81
2022/07/10 09:11:29;;;;;;;;;;;;;;;44.40;18.62;101730.53;6125972;23;19909;-80
2022/07/10 09:13:57;;;;;;;;;;;;;;;45.11;18.39;101736.78;6125630;23;20383;-81
2022/07/10 09:16:30;;;;;;;;;;;;;;;44.69;18.21;101729.50;6125273;23;19976;-81
2022/07/10 09:18:56;;;;;;;;;;;;;;;44.34;18.27;101729.78;6125578;23;20359;-84
2022/07/10 09:21:22;;;;;;;;;;;;;;;45.56;17.49;101733.41;6125174;23;19909;-81
2022/07/10 09:23:48;;;;;;;;;;;;;;;45.24;18.32;101729.59;6125909;23;20237;-81
2022/07/10 09:26:13;;;;;;;;;;;;;;;43.30;19.14;101727.84;6149144;23;19909;-81
2022/07/10 09:28:38;;;;;;;3.60;1.40;;;;;;;43.45;18.72;101719.34;6125370;23;19988;-81
2022/07/10 09:31:04;;;;;;;4.38;1.60;;;;;;;43.18;19.85;101728.22;6125234;23;20266;-81
2022/07/10 09:33:31;;;;;;;3.70;1.80;;;;;;;43.58;19.13;101720.56;6125200;23;20363;-81
2022/07/10 09:36:07;;;;;;;7.15;1.77;;;;;;;42.90;19.67;101714.13;6125195;23;19908;-81
2022/07/10 09:38:51;;;;;;;10.05;1.58;;;;;;;43.26;19.58;101710.97;6124828;23;20016;-81
2022/07/10 09:41:16;;;;;;;;;;;;;;;42.46;21.03;101709.53;6125772;23;20010;-81
2022/07/10 09:43:46;;;;;;;7.33;1.23;;;;;;;41.99;21.48;101703.44;6148360;23;20489;-81
2022/07/10 09:46:12;;;;;;;2.00;1.25;;;;;;;44.49;18.87;101703.78;6125110;23;20096;-81
2022/07/10 09:48:37;;;;;;;1.70;1.20;;;;;;;43.85;19.84;101705.31;6124781;23;20389;-82
2022/07/10 09:51:09;;;;;;;16.00;2.28;;;;;;;44.09;19.07;101702.50;6125349;23;20033;-82
2022/07/10 09:53:39;;;;;;;2.47;1.10;;;;;;;43.55;19.86;101707.34;6123268;23;20061;-82
2022/07/10 09:56:07;;;;;;;18.58;1.90;;;;;;;43.33;19.64;101714.25;6124679;23;19908;-82
2022/07/10 09:58:35;;;;;;;3.50;1.10;;;;;;;44.36;18.76;101701.78;6125561;23;20012;-82
2022/07/10 10:01:03;;;;;;;4.18;1.40;;;;;;;43.48;19.64;101698.59;6124765;23;20335;-82
2022/07/10 10:03:36;;;;;;;2.65;1.20;;;;;;;43.42;19.62;101692.28;6124866;23;20012;-82
2022/07/10 10:06:08;;;;;;;2.35;1.02;;;;;;;43.51;19.80;101695.25;6125192;23;20002;-82
2022/07/10 10:08:36;;;;;;;4.63;1.08;;;;;;;43.26;19.61;101694.38;6123499;23;20006;-82
2022/07/10 10:11:04;;;;;;;1.35;0.80;;;;;;;43.77;19.32;101692.97;6124856;23;20002;-82
2022/07/10 10:13:32;;;;;;;;;;;;;;;43.41;19.84;101690.66;6125088;23;19919;-82
2022/07/10 10:15:57;;;;;;;;;;;;;;;42.89;20.16;101695.91;6125461;23;19963;-82
2022/07/10 10:18:26;;;;;;;;;;;;;;;42.71;21.09;101700.19;6125375;23;20320;-82
2022/07/10 10:20:52;;;;;;;;;;;;;;;43.83;20.79;101688.19;6125578;23;19904;-82
2022/07/10 10:23:20;;;;;;;;;;;;;;;42.59;21.03;101686.75;6125315;23;19944;-82
2022/07/10 10:25:46;;;;;;;;;;;;;;;43.14;20.86;101685.69;6125187;23;19915;-82
2022/07/10 10:28:12;;;;;;;;;;;;;;;42.98;20.75;101680.34;6124935;23;20151;-82
2022/07/10 10:30:39;;;;;;;;;;;;;;;42.69;20.49;101688.59;6124387;23;20184;-82
2022/07/10 10:33:24;;;;;;;;;;;;;;;42.05;20.63;101676.69;6125069;23;19909;-82
2022/07/10 10:35:49;;;;;;;;;;;;;;;40.34;22.25;101674.59;6125138;23;19980;-82
2022/07/10 10:38:15;;;;;;;;;;;;;;;41.76;20.43;101677.38;6125229;23;19956;-82
2022/07/10 10:40:41;;;;;;;2.47;1.13;;;;;;;42.12;21.73;101673.59;6122329;23;20198;-82
2022/07/10 10:43:21;;;;;;;6.38;1.45;;;;;;;41.09;21.20;101662.16;6120758;23;20097;-81
2022/07/10 10:45:47;;;;;;;2.00;0.77;;;;;;;41.73;21.22;101668.84;6122841;23;20079;-81
2022/07/10 10:48:15;;;;;;;3.05;0.50;;;;;;;40.81;21.71;101661.69;6123192;23;20012;-82
2022/07/10 10:50:51;;;;;;;2.63;1.13;;;;;;;40.95;20.64;101665.50;6122994;23;20030;-82
2022/07/10 10:53:22;;;;;;;0.85;0.60;;;;;;;40.99;20.70;101661.09;6122925;23;20044;-81
2022/07/10 10:56:00;;;;;;;2.63;0.77;;;;;;;40.18;21.70;101661.91;6123057;23;20413;-82
2022/07/10 10:58:46;;;;;;;3.03;0.82;;;;;;;39.17;21.80;101664.00;6122759;23;20006;-83
2022/07/10 11:01:20;;;;;;;1.50;0.80;;;;;;;38.80;22.19;101662.09;6120265;23;20352;-82
2022/07/10 11:04:09;;;;;;;2.65;1.00;;;;;;;40.33;22.09;101663.91;6122551;23;20089;-83
2022/07/10 11:06:46;;;;;;;3.22;0.80;;;;;;;39.60;22.17;101662.84;6118215;23;20496;-84
2022/07/10 11:09:31;;;;;;;0.95;0.80;;;;;;;41.21;20.70;101658.00;6122846;23;20029;-83
2022/07/10 11:12:01;;;;;;;1.38;0.75;;;;;;;39.83;20.46;101660.72;6122548;23;20021;-83
2022/07/10 11:14:28;;;;;;;1.05;0.60;;;;;;;39.35;21.43;101654.47;6122543;23;20351;-83
2022/07/10 11:16:57;;;;;;;3.03;0.88;;;;;;;37.35;24.07;101658.91;6123564;23;20033;-84
2022/07/10 11:19:24;;;;;;;3.92;0.90;;;;;;;38.34;24.50;101650.72;6122974;23;20006;-83
2022/07/10 11:22:14;;;;;;;1.88;0.80;;;;;;;37.24;24.79;101659.84;6122814;23;20010;-84
2022/07/10 11:25:16;;;;;;;1.33;0.70;;;;;;;37.66;24.44;101651.06;6106591;23;20014;-83
2022/07/10 11:28:08;;;;;;;1.55;0.90;;;;;;;39.05;22.85;101645.00;6091355;23;20338;-83
2022/07/10 11:30:50;;;;;;;2.83;0.80;;;;;;;39.31;23.56;101645.13;6122630;23;20045;-83
2022/07/10 11:33:16;;;;;;;3.42;1.42;;;;;;;39.16;23.20;101643.09;6121450;23;20005;-83
2022/07/10 11:35:45;;;;;;;1.95;0.75;;;;;;;39.35;22.53;101638.81;6121774;23;20014;-85
2022/07/10 11:38:11;;;;;;;3.10;0.68;;;;;;;40.49;22.27;101640.78;6123678;23;20013;-84
2022/07/10 11:40:39;;;;;;;2.67;0.80;;;;;;;40.44;23.38;101638.00;6123609;23;20333;-84